sensor_id;sensor_type;location;lat;lon;timestamp;pressure;altitude;pressure_sealevel;temperature;humidity
39363;BME280;25088;43.238;23.110;2024-02-16T00:00:18;97196.09;;;4.70;65.76
39363;BME280;25088;43.238;23.110;2024-02-16T00:02:44;97186.47;;;4.54;66.08
39363;BME280;25088;43.238;23.110;2024-02-16T00:05:11;97213.75;;;4.65;65.91
39363;BME280;25088;43.238;23.110;2024-02-16T00:07:38;97212.31;;;4.70;65.99
39363;BME280;25088;43.238;23.110;2024-02-16T00:10:04;97224.19;;;4.75;65.39
39363;BME280;25088;43.238;23.110;2024-02-16T00:12:31;97217.97;;;4.75;65.77
39363;BME280;25088;43.238;23.110;2024-02-16T00:14:58;97203.19;;;4.77;64.96
39363;BME280;25088;43.238;23.110;2024-02-16T00:17:23;97213.00;;;4.78;64.95
39363;BME280;25088;43.238;23.110;2024-02-16T00:19:55;97218.59;;;4.77;64.93
39363;BME280;25088;43.238;23.110;2024-02-16T00:22:20;97208.50;;;4.57;65.81
39363;BME280;25088;43.238;23.110;2024-02-16T00:24:46;97201.91;;;4.66;65.17
39363;BME280;25088;43.238;23.110;2024-02-16T00:27:12;97221.63;;;4.54;66.81
39363;BME280;25088;43.238;23.110;2024-02-16T00:29:37;97228.09;;;4.59;66.11
39363;BME280;25088;43.238;23.110;2024-02-16T00:32:06;97224.38;;;4.67;65.61
39363;BME280;25088;43.238;23.110;2024-02-16T00:34:35;97230.22;;;4.71;65.52
39363;BME280;25088;43.238;23.110;2024-02-16T00:37:02;97227.44;;;4.57;65.96
39363;BME280;25088;43.238;23.110;2024-02-16T00:39:29;97226.00;;;4.61;65.89
39363;BME280;25088;43.238;23.110;2024-02-16T00:41:54;97228.56;;;4.70;65.52
39363;BME280;25088;43.238;23.110;2024-02-16T00:44:20;97222.75;;;4.73;65.01
39363;BME280;25088;43.238;23.110;2024-02-16T00:46:45;97220.44;;;4.76;64.58
39363;BME280;25088;43.238;23.110;2024-02-16T00:49:11;97196.53;;;4.73;64.44
39363;BME280;25088;43.238;23.110;2024-02-16T00:51:37;97209.00;;;4.74;64.27
39363;BME280;25088;43.238;23.110;2024-02-16T00:54:03;97224.25;;;4.88;64.15
39363;BME280;25088;43.238;23.110;2024-02-16T00:56:29;97228.63;;;4.83;64.31
39363;BME280;25088;43.238;23.110;2024-02-16T00:58:55;97216.28;;;4.74;64.64
39363;BME280;25088;43.238;23.110;2024-02-16T01:01:20;97223.47;;;3.84;69.56
39363;BME280;25088;43.238;23.110;2024-02-16T01:03:48;97220.84;;;3.97;68.23
39363;BME280;25088;43.238;23.110;2024-02-16T01:06:15;97216.44;;;3.89;69.67
39363;BME280;25088;43.238;23.110;2024-02-16T01:08:40;97221.41;;;3.86;69.65
39363;BME280;25088;43.238;23.110;2024-02-16T01:11:06;97211.59;;;3.78;70.25
39363;BME280;25088;43.238;23.110;2024-02-16T01:13:32;97212.81;;;3.76;70.33
39363;BME280;25088;43.238;23.110;2024-02-16T01:15:58;97214.63;;;3.69;71.18
39363;BME280;25088;43.238;23.110;2024-02-16T01:18:25;97204.34;;;3.57;71.04
39363;BME280;25088;43.238;23.110;2024-02-16T01:20:51;97202.28;;;3.59;71.55
39363;BME280;25088;43.238;23.110;2024-02-16T01:23:17;97205.44;;;3.63;71.71
39363;BME280;25088;43.238;23.110;2024-02-16T01:25:42;97207.69;;;3.59;71.47
39363;BME280;25088;43.238;23.110;2024-02-16T01:28:08;97206.03;;;3.58;71.86
39363;BME280;25088;43.238;23.110;2024-02-16T01:30:33;97175.50;;;3.36;71.97
39363;BME280;25088;43.238;23.110;2024-02-16T01:32:58;97197.69;;;3.53;71.99
39363;BME280;25088;43.238;23.110;2024-02-16T01:35:24;97201.00;;;3.55;71.65
39363;BME280;25088;43.238;23.110;2024-02-16T01:37:49;97196.41;;;3.49;72.13
39363;BME280;25088;43.238;23.110;2024-02-16T01:40:15;97175.25;;;3.31;72.84
39363;BME280;25088;43.238;23.110;2024-02-16T01:42:46;97194.19;;;3.38;73.47
39363;BME280;25088;43.238;23.110;2024-02-16T01:45:12;97192.38;;;3.39;73.69
39363;BME280;25088;43.238;23.110;2024-02-16T01:47:38;97181.63;;;3.24;73.73
39363;BME280;25088;43.238;23.110;2024-02-16T01:50:05;97190.25;;;3.34;72.84
39363;BME280;25088;43.238;23.110;2024-02-16T01:52:31;97175.06;;;3.33;72.77
39363;BME280;25088;43.238;23.110;2024-02-16T01:54:59;97187.84;;;3.46;72.38
39363;BME280;25088;43.238;23.110;2024-02-16T01:57:26;97184.25;;;3.39;72.54
39363;BME280;25088;43.238;23.110;2024-02-16T01:59:51;97186.75;;;3.40;72.70
39363;BME280;25088;43.238;23.110;2024-02-16T02:02:19;97183.47;;;3.45;72.42
39363;BME280;25088;43.238;23.110;2024-02-16T02:04:44;97192.47;;;3.52;71.68
39363;BME280;25088;43.238;23.110;2024-02-16T02:07:14;97183.53;;;3.51;72.07
39363;BME280;25088;43.238;23.110;2024-02-16T02:09:40;97187.00;;;3.45;72.68
39363;BME280;25088;43.238;23.110;2024-02-16T02:12:06;97196.16;;;3.44;72.86
39363;BME280;25088;43.238;23.110;2024-02-16T02:14:32;97200.72;;;3.44;73.12
39363;BME280;25088;43.238;23.110;2024-02-16T02:16:58;97171.53;;;3.32;72.28
39363;BME280;25088;43.238;23.110;2024-02-16T02:19:24;97172.44;;;3.40;71.60
39363;BME280;25088;43.238;23.110;2024-02-16T02:21:50;97145.72;;;3.23;71.82
39363;BME280;25088;43.238;23.110;2024-02-16T02:24:16;97195.56;;;3.49;72.54
39363;BME280;25088;43.238;23.110;2024-02-16T02:26:42;97187.78;;;3.39;73.19
39363;BME280;25088;43.238;23.110;2024-02-16T02:29:07;97177.16;;;3.09;74.51
39363;BME280;25088;43.238;23.110;2024-02-16T02:31:32;97190.22;;;3.13;75.51
39363;BME280;25088;43.238;23.110;2024-02-16T02:33:58;97194.16;;;3.10;75.17
39363;BME280;25088;43.238;23.110;2024-02-16T02:36:23;97199.69;;;3.23;74.45
39363;BME280;25088;43.238;23.110;2024-02-16T02:38:49;97161.84;;;3.17;73.84
39363;BME280;25088;43.238;23.110;2024-02-16T02:41:16;97186.50;;;3.35;73.55
39363;BME280;25088;43.238;23.110;2024-02-16T02:43:42;97183.34;;;3.31;73.81
39363;BME280;25088;43.238;23.110;2024-02-16T02:46:08;97196.66;;;3.33;74.01
39363;BME280;25088;43.238;23.110;2024-02-16T02:48:33;97188.28;;;3.28;73.63
39363;BME280;25088;43.238;23.110;2024-02-16T02:50:59;97166.03;;;3.19;73.68
39363;BME280;25088;43.238;23.110;2024-02-16T02:53:28;97196.59;;;3.26;74.46
39363;BME280;25088;43.238;23.110;2024-02-16T02:55:53;97190.88;;;3.15;74.32
39363;BME280;25088;43.238;23.110;2024-02-16T02:58:19;97200.38;;;3.10;74.84
39363;BME280;25088;43.238;23.110;2024-02-16T03:00:44;97179.97;;;3.01;75.54
39363;BME280;25088;43.238;23.110;2024-02-16T03:03:10;97185.72;;;2.98;75.22
39363;BME280;25088;43.238;23.110;2024-02-16T03:05:35;97192.81;;;2.99;75.49
39363;BME280;25088;43.238;23.110;2024-02-16T03:08:01;97191.59;;;3.02;75.82
39363;BME280;25088;43.238;23.110;2024-02-16T03:10:27;97196.41;;;3.06;75.55
39363;BME280;25088;43.238;23.110;2024-02-16T03:12:57;97197.22;;;3.07;75.59
39363;BME280;25088;43.238;23.110;2024-02-16T03:15:22;97196.91;;;3.17;75.35
39363;BME280;25088;43.238;23.110;2024-02-16T03:17:48;97179.44;;;2.91;75.63
39363;BME280;25088;43.238;23.110;2024-02-16T03:20:13;97190.22;;;3.13;74.84
39363;BME280;25088;43.238;23.110;2024-02-16T03:22:39;97188.00;;;3.16;73.43
39363;BME280;25088;43.238;23.110;2024-02-16T03:25:04;97200.13;;;3.27;73.54
39363;BME280;25088;43.238;23.110;2024-02-16T03:27:30;97194.16;;;3.31;74.03
39363;BME280;25088;43.238;23.110;2024-02-16T03:29:55;97198.84;;;3.23;73.96
39363;BME280;25088;43.238;23.110;2024-02-16T03:32:21;97203.06;;;3.32;73.29
39363;BME280;25088;43.238;23.110;2024-02-16T03:34:46;97177.91;;;3.25;72.94
39363;BME280;25088;43.238;23.110;2024-02-16T03:37:12;97196.47;;;3.34;72.77
39363;BME280;25088;43.238;23.110;2024-02-16T03:39:37;97177.44;;;3.21;73.43
39363;BME280;25088;43.238;23.110;2024-02-16T03:42:03;97178.19;;;3.08;73.97
39363;BME280;25088;43.238;23.110;2024-02-16T03:44:28;97189.53;;;3.25;73.73
39363;BME280;25088;43.238;23.110;2024-02-16T03:46:54;97196.47;;;3.34;73.05
39363;BME280;25088;43.238;23.110;2024-02-16T03:49:19;97196.53;;;3.41;72.97
39363;BME280;25088;43.238;23.110;2024-02-16T03:51:45;97197.44;;;3.48;71.97
39363;BME280;25088;43.238;23.110;2024-02-16T03:54:11;97162.84;;;3.37;71.67
39363;BME280;25088;43.238;23.110;2024-02-16T03:56:36;97196.81;;;3.53;71.47
39363;BME280;25088;43.238;23.110;2024-02-16T03:59:02;97196.00;;;3.52;72.14
39363;BME280;25088;43.238;23.110;2024-02-16T04:01:29;97184.69;;;3.63;71.32
39363;BME280;25088;43.238;23.110;2024-02-16T04:03:55;97184.19;;;3.53;71.14
39363;BME280;25088;43.238;23.110;2024-02-16T04:06:21;97162.09;;;3.43;71.56
39363;BME280;25088;43.238;23.110;2024-02-16T04:08:46;97194.69;;;3.70;71.16
39363;BME280;25088;43.238;23.110;2024-02-16T04:11:13;97200.34;;;3.75;70.37
39363;BME280;25088;43.238;23.110;2024-02-16T04:13:40;97175.75;;;3.63;70.40
39363;BME280;25088;43.238;23.110;2024-02-16T04:16:06;97171.56;;;3.60;70.20
39363;BME280;25088;43.238;23.110;2024-02-16T04:18:31;97183.47;;;3.73;70.48
39363;BME280;25088;43.238;23.110;2024-02-16T04:20:57;97193.53;;;3.79;70.27
39363;BME280;25088;43.238;23.110;2024-02-16T04:23:22;97196.34;;;3.71;70.43
39363;BME280;25088;43.238;23.110;2024-02-16T04:25:48;97201.13;;;3.69;70.43
39363;BME280;25088;43.238;23.110;2024-02-16T04:28:13;97193.41;;;3.66;70.96
39363;BME280;25088;43.238;23.110;2024-02-16T04:30:39;97192.78;;;3.63;70.65
39363;BME280;25088;43.238;23.110;2024-02-16T04:33:05;97202.91;;;3.61;71.08
39363;BME280;25088;43.238;23.110;2024-02-16T04:35:30;97199.84;;;3.65;71.67
39363;BME280;25088;43.238;23.110;2024-02-16T04:37:56;97212.75;;;3.69;71.35
39363;BME280;25088;43.238;23.110;2024-02-16T04:40:21;97161.69;;;3.46;70.42
39363;BME280;25088;43.238;23.110;2024-02-16T04:42:47;97208.69;;;3.80;70.20
39363;BME280;25088;43.238;23.110;2024-02-16T04:45:13;97203.03;;;3.75;70.96
39363;BME280;25088;43.238;23.110;2024-02-16T04:47:38;97211.59;;;3.78;70.16
39363;BME280;25088;43.238;23.110;2024-02-16T04:50:05;97172.16;;;3.56;69.70
39363;BME280;25088;43.238;23.110;2024-02-16T04:52:36;97211.63;;;3.85;70.00
39363;BME280;25088;43.238;23.110;2024-02-16T04:55:01;97210.09;;;3.76;70.78
39363;BME280;25088;43.238;23.110;2024-02-16T04:57:27;97206.31;;;3.70;70.87
39363;BME280;25088;43.238;23.110;2024-02-16T04:59:52;97214.88;;;3.74;70.72
39363;BME280;25088;43.238;23.110;2024-02-16T05:02:17;97208.81;;;3.72;70.88
39363;BME280;25088;43.238;23.110;2024-02-16T05:04:43;97207.53;;;3.68;70.75
39363;BME280;25088;43.238;23.110;2024-02-16T05:07:08;97205.94;;;3.73;70.76
39363;BME280;25088;43.238;23.110;2024-02-16T05:09:34;97211.72;;;3.70;70.70
39363;BME280;25088;43.238;23.110;2024-02-16T05:12:00;97218.41;;;3.74;70.91
39363;BME280;25088;43.238;23.110;2024-02-16T05:14:25;97222.56;;;3.77;70.46
39363;BME280;25088;43.238;23.110;2024-02-16T05:16:51;97227.13;;;3.76;70.54
39363;BME280;25088;43.238;23.110;2024-02-16T05:19:16;97222.56;;;3.77;71.14
39363;BME280;25088;43.238;23.110;2024-02-16T05:21:41;97213.84;;;3.75;70.94
39363;BME280;25088;43.238;23.110;2024-02-16T05:24:07;97209.84;;;3.71;70.78
39363;BME280;25088;43.238;23.110;2024-02-16T05:26:32;97226.56;;;3.81;70.83
39363;BME280;25088;43.238;23.110;2024-02-16T05:28:59;97220.81;;;3.91;69.54
39363;BME280;25088;43.238;23.110;2024-02-16T05:31:25;97229.66;;;4.06;68.95
39363;BME280;25088;43.238;23.110;2024-02-16T05:33:51;97229.50;;;4.14;68.78
39363;BME280;25088;43.238;23.110;2024-02-16T05:36:22;97232.13;;;4.07;69.33
39363;BME280;25088;43.238;23.110;2024-02-16T05:38:55;97238.09;;;3.96;69.95
39363;BME280;25088;43.238;23.110;2024-02-16T05:41:21;97218.06;;;3.84;69.06
39363;BME280;25088;43.238;23.110;2024-02-16T05:43:47;97237.00;;;3.91;69.63
39363;BME280;25088;43.238;23.110;2024-02-16T05:46:15;97224.56;;;3.89;70.00
39363;BME280;25088;43.238;23.110;2024-02-16T05:48:41;97241.00;;;3.95;69.98
39363;BME280;25088;43.238;23.110;2024-02-16T05:51:06;97231.06;;;4.02;69.19
39363;BME280;25088;43.238;23.110;2024-02-16T05:53:35;97243.41;;;4.11;69.28
39363;BME280;25088;43.238;23.110;2024-02-16T05:56:01;97244.44;;;4.10;68.86
39363;BME280;25088;43.238;23.110;2024-02-16T05:58:27;97243.03;;;4.21;68.24
39363;BME280;25088;43.238;23.110;2024-02-16T06:00:53;97248.72;;;4.32;67.75
39363;BME280;25088;43.238;23.110;2024-02-16T06:03:19;97232.47;;;4.26;67.38
39363;BME280;25088;43.238;23.110;2024-02-16T06:05:45;97247.72;;;4.33;67.98
39363;BME280;25088;43.238;23.110;2024-02-16T06:08:10;97248.09;;;4.30;68.35
39363;BME280;25088;43.238;23.110;2024-02-16T06:10:36;97249.94;;;4.23;68.85
39363;BME280;25088;43.238;23.110;2024-02-16T06:13:01;97249.75;;;4.31;68.08
39363;BME280;25088;43.238;23.110;2024-02-16T06:15:27;97249.59;;;4.33;68.66
39363;BME280;25088;43.238;23.110;2024-02-16T06:17:52;97254.63;;;4.43;68.20
39363;BME280;25088;43.238;23.110;2024-02-16T06:20:18;97237.53;;;4.35;68.67
39363;BME280;25088;43.238;23.110;2024-02-16T06:22:44;97253.19;;;4.47;68.56
39363;BME280;25088;43.238;23.110;2024-02-16T06:25:09;97243.13;;;4.34;68.40
39363;BME280;25088;43.238;23.110;2024-02-16T06:27:35;97259.47;;;4.54;68.92
39363;BME280;25088;43.238;23.110;2024-02-16T06:30:01;97250.16;;;4.63;68.27
39363;BME280;25088;43.238;23.110;2024-02-16T06:32:26;97253.97;;;4.75;67.73
39363;BME280;25088;43.238;23.110;2024-02-16T06:34:53;97249.47;;;4.96;66.88
39363;BME280;25088;43.238;23.110;2024-02-16T06:37:19;97246.00;;;5.15;65.54
39363;BME280;25088;43.238;23.110;2024-02-16T06:39:44;97240.22;;;5.44;64.19
39363;BME280;25088;43.238;23.110;2024-02-16T06:42:10;97227.91;;;5.35;63.82
39363;BME280;25088;43.238;23.110;2024-02-16T06:44:38;97246.88;;;5.35;64.13
39363;BME280;25088;43.238;23.110;2024-02-16T06:47:05;97243.38;;;5.55;63.71
39363;BME280;25088;43.238;23.110;2024-02-16T06:49:30;97235.06;;;5.63;62.63
39363;BME280;25088;43.238;23.110;2024-02-16T06:51:56;97208.56;;;6.11;61.30
39363;BME280;25088;43.238;23.110;2024-02-16T06:54:22;97239.75;;;7.18;58.17
39363;BME280;25088;43.238;23.110;2024-02-16T06:56:49;97221.09;;;7.60;56.13
39363;BME280;25088;43.238;23.110;2024-02-16T06:59:17;97230.78;;;8.06;55.17
39363;BME280;25088;43.238;23.110;2024-02-16T07:01:42;97232.28;;;8.27;54.62
39363;BME280;25088;43.238;23.110;2024-02-16T07:04:08;97227.97;;;8.81;53.54
39363;BME280;25088;43.238;23.110;2024-02-16T07:06:34;97219.41;;;8.77;53.40
39363;BME280;25088;43.238;23.110;2024-02-16T07:09:00;97235.25;;;9.36;52.48
39363;BME280;25088;43.238;23.110;2024-02-16T07:11:26;97216.84;;;9.31;51.61
39363;BME280;25088;43.238;23.110;2024-02-16T07:13:51;97226.13;;;9.83;50.98
39363;BME280;25088;43.238;23.110;2024-02-16T07:16:17;97229.53;;;9.67;51.29
39363;BME280;25088;43.238;23.110;2024-02-16T07:18:44;97231.84;;;9.94;50.91
39363;BME280;25088;43.238;23.110;2024-02-16T07:21:09;97230.41;;;10.45;49.04
39363;BME280;25088;43.238;23.110;2024-02-16T07:23:35;97234.03;;;10.74;48.42
39363;BME280;25088;43.238;23.110;2024-02-16T07:26:00;97226.69;;;10.63;49.12
39363;BME280;25088;43.238;23.110;2024-02-16T07:28:27;97235.00;;;10.68;48.48
39363;BME280;25088;43.238;23.110;2024-02-16T07:30:52;97228.66;;;11.02;48.00
39363;BME280;25088;43.238;23.110;2024-02-16T07:33:18;97227.06;;;11.18;47.60
39363;BME280;25088;43.238;23.110;2024-02-16T07:35:44;97233.91;;;11.61;46.47
39363;BME280;25088;43.238;23.110;2024-02-16T07:38:09;97224.63;;;11.90;45.89
39363;BME280;25088;43.238;23.110;2024-02-16T07:40:35;97233.81;;;12.52;44.93
39363;BME280;25088;43.238;23.110;2024-02-16T07:43:01;97216.56;;;13.12;43.37
39363;BME280;25088;43.238;23.110;2024-02-16T07:45:28;97235.59;;;13.40;42.57
39363;BME280;25088;43.238;23.110;2024-02-16T07:47:53;97215.53;;;13.62;42.38
39363;BME280;25088;43.238;23.110;2024-02-16T07:50:22;97225.56;;;14.37;41.50
39363;BME280;25088;43.238;23.110;2024-02-16T07:52:49;97215.84;;;14.57;40.93
39363;BME280;25088;43.238;23.110;2024-02-16T07:55:14;97216.19;;;15.13;38.83
39363;BME280;25088;43.238;23.110;2024-02-16T07:57:40;97219.69;;;15.66;38.14
39363;BME280;25088;43.238;23.110;2024-02-16T08:00:06;97221.97;;;16.05;37.86
39363;BME280;25088;43.238;23.110;2024-02-16T08:02:32;97213.69;;;16.50;36.64
39363;BME280;25088;43.238;23.110;2024-02-16T08:04:58;97218.06;;;16.97;34.81
39363;BME280;25088;43.238;23.110;2024-02-16T08:07:24;97219.88;;;17.33;34.91
39363;BME280;25088;43.238;23.110;2024-02-16T08:09:49;97212.50;;;17.18;34.22
39363;BME280;25088;43.238;23.110;2024-02-16T08:12:15;97226.81;;;17.20;33.29
39363;BME280;25088;43.238;23.110;2024-02-16T08:14:41;97200.03;;;17.25;33.57
39363;BME280;25088;43.238;23.110;2024-02-16T08:17:07;97213.41;;;17.63;33.12
39363;BME280;25088;43.238;23.110;2024-02-16T08:19:34;97217.81;;;17.64;33.30
39363;BME280;25088;43.238;23.110;2024-02-16T08:22:03;97222.97;;;17.21;33.30
39363;BME280;25088;43.238;23.110;2024-02-16T08:24:34;97220.16;;;17.36;33.07
39363;BME280;25088;43.238;23.110;2024-02-16T08:26:59;97217.47;;;17.05;33.73
39363;BME280;25088;43.238;23.110;2024-02-16T08:29:25;97218.38;;;16.65;34.19
39363;BME280;25088;43.238;23.110;2024-02-16T08:31:54;97208.19;;;16.30;34.41
39363;BME280;25088;43.238;23.110;2024-02-16T08:34:20;97223.06;;;16.39;34.41
39363;BME280;25088;43.238;23.110;2024-02-16T08:36:46;97227.47;;;16.86;33.92
39363;BME280;25088;43.238;23.110;2024-02-16T08:39:13;97220.75;;;17.23;33.54
39363;BME280;25088;43.238;23.110;2024-02-16T08:41:38;97221.19;;;17.50;33.13
39363;BME280;25088;43.238;23.110;2024-02-16T08:44:05;97220.09;;;17.51;33.11
39363;BME280;25088;43.238;23.110;2024-02-16T08:46:32;97216.59;;;17.85;32.32
39363;BME280;25088;43.238;23.110;2024-02-16T08:48:58;97207.00;;;18.17;32.17
39363;BME280;25088;43.238;23.110;2024-02-16T08:51:23;97217.34;;;18.40;31.69
39363;BME280;25088;43.238;23.110;2024-02-16T08:53:49;97200.00;;;18.58;32.10
39363;BME280;25088;43.238;23.110;2024-02-16T08:56:14;97209.38;;;18.63;31.32
39363;BME280;25088;43.238;23.110;2024-02-16T08:58:41;97222.19;;;18.53;31.48
39363;BME280;25088;43.238;23.110;2024-02-16T09:01:06;97221.25;;;18.63;31.26
39363;BME280;25088;43.238;23.110;2024-02-16T09:03:32;97223.78;;;18.59;31.04
39363;BME280;25088;43.238;23.110;2024-02-16T09:06:02;97228.31;;;18.50;32.08
39363;BME280;25088;43.238;23.110;2024-02-16T09:08:28;97222.22;;;18.82;32.29
39363;BME280;25088;43.238;23.110;2024-02-16T09:11:01;97220.88;;;19.04;31.11
39363;BME280;25088;43.238;23.110;2024-02-16T09:13:34;97204.72;;;19.16;30.98
39363;BME280;25088;43.238;23.110;2024-02-16T09:16:02;97219.13;;;19.61;30.47
39363;BME280;25088;43.238;23.110;2024-02-16T09:18:28;97208.00;;;19.85;30.33
39363;BME280;25088;43.238;23.110;2024-02-16T09:20:54;97221.56;;;20.05;30.53
39363;BME280;25088;43.238;23.110;2024-02-16T09:23:19;97224.41;;;20.19;29.64
39363;BME280;25088;43.238;23.110;2024-02-16T09:25:45;97226.28;;;20.05;29.51
39363;BME280;25088;43.238;23.110;2024-02-16T09:28:11;97224.03;;;19.88;30.08
39363;BME280;25088;43.238;23.110;2024-02-16T09:30:38;97202.63;;;19.51;30.71
39363;BME280;25088;43.238;23.110;2024-02-16T09:33:03;97224.63;;;19.85;31.08
39363;BME280;25088;43.238;23.110;2024-02-16T09:35:29;97214.88;;;19.87;31.00
39363;BME280;25088;43.238;23.110;2024-02-16T09:37:54;97211.38;;;19.58;30.79
39363;BME280;25088;43.238;23.110;2024-02-16T09:40:21;97213.31;;;19.81;30.62
39363;BME280;25088;43.238;23.110;2024-02-16T09:42:49;97228.00;;;20.01;30.24
39363;BME280;25088;43.238;23.110;2024-02-16T09:45:16;97206.34;;;20.03;29.65
39363;BME280;25088;43.238;23.110;2024-02-16T09:47:43;97223.56;;;20.56;29.19
39363;BME280;25088;43.238;23.110;2024-02-16T09:50:10;97221.81;;;20.60;28.86
39363;BME280;25088;43.238;23.110;2024-02-16T09:52:36;97215.91;;;20.48;29.52
39363;BME280;25088;43.238;23.110;2024-02-16T09:55:02;97211.88;;;20.73;28.92
39363;BME280;25088;43.238;23.110;2024-02-16T09:57:27;97194.00;;;20.65;29.43
39363;BME280;25088;43.238;23.110;2024-02-16T09:59:53;97196.97;;;20.18;29.94
39363;BME280;25088;43.238;23.110;2024-02-16T10:02:18;97177.78;;;20.40;29.57
39363;BME280;25088;43.238;23.110;2024-02-16T10:04:44;97209.00;;;20.64;29.38
39363;BME280;25088;43.238;23.110;2024-02-16T10:07:09;97199.69;;;20.74;28.75
39363;BME280;25088;43.238;23.110;2024-02-16T10:09:35;97206.81;;;20.94;28.59
39363;BME280;25088;43.238;23.110;2024-02-16T10:12:01;97186.56;;;21.21;28.40
39363;BME280;25088;43.238;23.110;2024-02-16T10:14:26;97198.03;;;21.33;28.41
39363;BME280;25088;43.238;23.110;2024-02-16T10:17:03;97201.09;;;21.32;27.90
39363;BME280;25088;43.238;23.110;2024-02-16T10:19:30;97189.97;;;21.59;27.64
39363;BME280;25088;43.238;23.110;2024-02-16T10:22:09;97198.22;;;21.37;28.39
39363;BME280;25088;43.238;23.110;2024-02-16T10:24:34;97187.59;;;21.25;28.06
39363;BME280;25088;43.238;23.110;2024-02-16T10:27:00;97177.00;;;21.55;28.48
39363;BME280;25088;43.238;23.110;2024-02-16T10:29:27;97180.09;;;21.53;28.27
39363;BME280;25088;43.238;23.110;2024-02-16T10:31:52;97185.84;;;21.71;27.87
39363;BME280;25088;43.238;23.110;2024-02-16T10:34:19;97162.44;;;21.85;27.22
39363;BME280;25088;43.238;23.110;2024-02-16T10:36:46;97173.91;;;21.42;28.22
39363;BME280;25088;43.238;23.110;2024-02-16T10:39:13;97171.03;;;21.48;27.87
39363;BME280;25088;43.238;23.110;2024-02-16T10:41:41;97179.06;;;20.94;28.39
39363;BME280;25088;43.238;23.110;2024-02-16T10:44:07;97159.72;;;21.16;28.89
39363;BME280;25088;43.238;23.110;2024-02-16T10:46:33;97161.28;;;21.50;28.52
39363;BME280;25088;43.238;23.110;2024-02-16T10:48:59;97131.72;;;21.27;28.15
39363;BME280;25088;43.238;23.110;2024-02-16T10:51:31;97156.44;;;21.42;27.94
39363;BME280;25088;43.238;23.110;2024-02-16T10:54:00;97161.59;;;21.35;28.51
39363;BME280;25088;43.238;23.110;2024-02-16T10:56:28;97142.03;;;21.54;27.90
39363;BME280;25088;43.238;23.110;2024-02-16T10:59:00;97153.63;;;21.70;28.01
39363;BME280;25088;43.238;23.110;2024-02-16T11:01:25;97150.28;;;21.45;27.96
39363;BME280;25088;43.238;23.110;2024-02-16T11:04:01;97129.44;;;21.70;27.95
39363;BME280;25088;43.238;23.110;2024-02-16T11:06:27;97140.63;;;21.79;27.54
39363;BME280;25088;43.238;23.110;2024-02-16T11:08:53;97121.00;;;21.61;27.85
39363;BME280;25088;43.238;23.110;2024-02-16T11:11:24;97137.25;;;21.68;27.91
39363;BME280;25088;43.238;23.110;2024-02-16T11:13:54;97141.41;;;21.29;28.20
39363;BME280;25088;43.238;23.110;2024-02-16T11:16:21;97136.91;;;21.20;28.94
39363;BME280;25088;43.238;23.110;2024-02-16T11:18:47;97134.50;;;21.90;28.03
39363;BME280;25088;43.238;23.110;2024-02-16T11:21:15;97131.31;;;22.42;27.20
39363;BME280;25088;43.238;23.110;2024-02-16T11:23:41;97128.75;;;22.23;27.70
39363;BME280;25088;43.238;23.110;2024-02-16T11:26:11;97129.22;;;22.48;27.68
39363;BME280;25088;43.238;23.110;2024-02-16T11:28:38;97128.56;;;22.73;26.77
39363;BME280;25088;43.238;23.110;2024-02-16T11:31:05;97126.41;;;23.01;26.09
39363;BME280;25088;43.238;23.110;2024-02-16T11:33:31;97122.69;;;22.07;26.77
39363;BME280;25088;43.238;23.110;2024-02-16T11:36:01;97122.97;;;22.42;27.13
39363;BME280;25088;43.238;23.110;2024-02-16T11:38:27;97107.19;;;22.29;27.45
39363;BME280;25088;43.238;23.110;2024-02-16T11:40:54;97114.94;;;22.40;27.57
39363;BME280;25088;43.238;23.110;2024-02-16T11:43:23;97113.88;;;22.50;27.72
39363;BME280;25088;43.238;23.110;2024-02-16T11:45:49;97105.56;;;22.59;27.06
39363;BME280;25088;43.238;23.110;2024-02-16T11:48:23;97120.75;;;22.84;27.36
39363;BME280;25088;43.238;23.110;2024-02-16T11:50:49;97112.03;;;23.08;26.90
39363;BME280;25088;43.238;23.110;2024-02-16T11:53:17;97100.16;;;23.42;26.43
39363;BME280;25088;43.238;23.110;2024-02-16T11:55:49;97101.47;;;23.44;26.46
39363;BME280;25088;43.238;23.110;2024-02-16T11:58:19;97090.69;;;23.60;25.98
39363;BME280;25088;43.238;23.110;2024-02-16T12:04:27;97100.19;;;23.59;26.48
39363;BME280;25088;43.238;23.110;2024-02-16T12:06:54;97104.34;;;23.88;26.31
39363;BME280;25088;43.238;23.110;2024-02-16T12:09:20;97096.31;;;23.78;26.67
39363;BME280;25088;43.238;23.110;2024-02-16T12:11:48;97095.97;;;23.79;26.56
39363;BME280;25088;43.238;23.110;2024-02-16T12:14:18;97097.56;;;23.63;26.65
39363;BME280;25088;43.238;23.110;2024-02-16T12:16:50;97076.47;;;23.79;26.03
39363;BME280;25088;43.238;23.110;2024-02-16T12:19:18;97090.06;;;23.89;25.77
39363;BME280;25088;43.238;23.110;2024-02-16T12:21:51;97074.31;;;23.85;25.83
39363;BME280;25088;43.238;23.110;2024-02-16T12:24:18;97085.31;;;23.90;25.95
39363;BME280;25088;43.238;23.110;2024-02-16T12:26:43;97075.09;;;24.11;26.36
39363;BME280;25088;43.238;23.110;2024-02-16T12:29:09;97073.84;;;23.83;26.50
39363;BME280;25088;43.238;23.110;2024-02-16T12:31:38;97074.81;;;23.95;25.93
39363;BME280;25088;43.238;23.110;2024-02-16T12:34:05;97067.41;;;23.91;26.02
39363;BME280;25088;43.238;23.110;2024-02-16T12:36:33;97068.88;;;24.14;26.07
39363;BME280;25088;43.238;23.110;2024-02-16T12:38:59;97075.09;;;24.20;26.28
39363;BME280;25088;43.238;23.110;2024-02-16T12:41:24;97078.53;;;24.34;26.08
39363;BME280;25088;43.238;23.110;2024-02-16T12:43:50;97087.56;;;24.40;26.20
39363;BME280;25088;43.238;23.110;2024-02-16T12:46:16;97075.59;;;24.39;25.57
39363;BME280;25088;43.238;23.110;2024-02-16T12:48:41;97090.38;;;23.96;25.80
39363;BME280;25088;43.238;23.110;2024-02-16T12:51:07;97084.47;;;24.15;26.00
39363;BME280;25088;43.238;23.110;2024-02-16T12:53:32;97083.84;;;23.75;26.82